createdAt,value
2022-11-08T00:01:09.549Z,9.02
2022-11-08T00:03:36.213Z,8.95
2022-11-08T00:06:03.734Z,9.20
2022-11-08T00:08:30.409Z,8.95
2022-11-08T00:11:02.805Z,8.57
2022-11-08T00:13:29.196Z,9.10
2022-11-08T00:15:55.585Z,8.48
2022-11-08T00:18:21.934Z,8.43
2022-11-08T00:20:48.289Z,8.43
2022-11-08T00:23:15.681Z,8.50
2022-11-08T00:25:41.999Z,9.02
2022-11-08T00:28:08.385Z,8.00
2022-11-08T00:30:35.213Z,8.95
2022-11-08T00:33:01.784Z,8.75
2022-11-08T00:35:28.268Z,9.45
2022-11-08T00:37:54.637Z,8.77
2022-11-08T00:40:21.317Z,8.27
2022-11-08T00:42:49.507Z,8.02
2022-11-08T00:45:16.175Z,7.93
2022-11-08T00:47:42.554Z,8.80
2022-11-08T00:50:09.315Z,8.48
2022-11-08T00:52:35.786Z,8.55
2022-11-08T00:55:02.468Z,8.48
2022-11-08T00:57:41.165Z,8.65
2022-11-08T01:00:14.143Z,7.28
2022-11-08T01:02:40.612Z,7.85
2022-11-08T01:05:07.520Z,9.00
2022-11-08T01:07:34.119Z,15.65
2022-11-08T01:10:00.486Z,13.10
2022-11-08T01:12:26.845Z,10.45
2022-11-08T01:14:53.270Z,8.68
2022-11-08T01:17:19.673Z,9.25
2022-11-08T01:19:46.064Z,9.20
2022-11-08T01:22:12.605Z,9.20
2022-11-08T01:24:39.262Z,8.32
2022-11-08T01:27:05.711Z,7.57
2022-11-08T01:29:33.422Z,8.55
2022-11-08T01:31:59.908Z,7.97
2022-11-08T01:34:26.545Z,7.88
2022-11-08T01:36:53.087Z,7.63
2022-11-08T01:39:19.729Z,9.60
2022-11-08T01:41:46.297Z,10.13
2022-11-08T01:44:17.177Z,8.52
2022-11-08T01:49:30.210Z,8.23
2022-11-08T01:51:59.768Z,7.75
2022-11-08T01:54:44.643Z,8.65
2022-11-08T01:57:16.562Z,7.78
2022-11-08T01:59:45.857Z,7.63
2022-11-08T02:02:13.266Z,10.63
2022-11-08T02:04:41.177Z,31.83
2022-11-08T02:07:07.755Z,32.67
2022-11-08T02:09:38.592Z,21.38
2022-11-08T02:12:07.676Z,12.10
2022-11-08T02:14:34.880Z,11.73
2022-11-08T02:17:01.481Z,10.45
2022-11-08T02:19:49.553Z,9.75
2022-11-08T02:22:28.971Z,9.50
2022-11-08T02:24:56.656Z,8.32
2022-11-08T02:27:23.063Z,7.88
2022-11-08T02:29:54.203Z,8.77
2022-11-08T02:32:21.216Z,8.20
2022-11-08T02:34:52.348Z,8.60
2022-11-08T02:37:20.836Z,7.90
2022-11-08T02:39:47.565Z,8.07
2022-11-08T02:42:15.840Z,7.43
2022-11-08T02:44:42.271Z,7.97
2022-11-08T02:47:09.042Z,7.35
2022-11-08T02:49:35.567Z,8.23
2022-11-08T02:52:01.991Z,7.00
2022-11-08T02:54:28.511Z,8.00
2022-11-08T02:56:54.898Z,7.35
2022-11-08T02:59:21.413Z,7.63
2022-11-08T03:01:47.892Z,7.38
2022-11-08T03:04:14.776Z,7.20
2022-11-08T03:06:41.425Z,7.40
2022-11-08T03:09:07.883Z,6.68
2022-11-08T03:11:34.378Z,7.00
2022-11-08T03:14:00.945Z,7.85
2022-11-08T03:16:27.300Z,7.70
2022-11-08T03:18:54.140Z,7.63
2022-11-08T03:21:20.497Z,7.25
2022-11-08T03:23:47.160Z,7.93
2022-11-08T03:26:13.724Z,7.40
2022-11-08T03:28:40.063Z,7.20
2022-11-08T03:31:06.649Z,7.70
2022-11-08T03:33:33.173Z,6.72
2022-11-08T03:35:59.763Z,7.30
2022-11-08T03:38:26.232Z,7.25
2022-11-08T03:40:52.595Z,7.93
2022-11-08T03:43:19.178Z,9.13
2022-11-08T03:45:47.108Z,8.40
2022-11-08T03:48:13.536Z,9.02
2022-11-08T03:50:40.262Z,8.60
2022-11-08T03:53:06.605Z,8.10
2022-11-08T03:55:33.136Z,7.88
2022-11-08T03:57:59.431Z,7.57
2022-11-08T04:00:28.933Z,7.20
2022-11-08T04:03:00.930Z,6.90
2022-11-08T04:05:27.565Z,6.70
2022-11-08T04:07:53.922Z,6.97
2022-11-08T04:10:20.569Z,7.63
2022-11-08T04:12:46.900Z,11.25
2022-11-08T04:15:19.563Z,12.03
2022-11-08T04:17:49.092Z,12.47
2022-11-08T04:20:15.567Z,14.35
2022-11-08T04:22:41.918Z,13.77
2022-11-08T04:25:08.487Z,15.85
2022-11-08T04:27:35.038Z,15.30
2022-11-08T04:30:01.796Z,10.88
2022-11-08T04:32:28.090Z,13.20
2022-11-08T04:34:54.438Z,12.60
2022-11-08T04:37:21.121Z,11.43
2022-11-08T04:39:47.657Z,12.07
2022-11-08T04:42:14.220Z,12.10
2022-11-08T04:44:40.587Z,11.23
2022-11-08T04:47:07.267Z,10.68
2022-11-08T04:49:33.740Z,10.40
2022-11-08T04:52:00.118Z,10.75
2022-11-08T04:54:26.537Z,11.18
2022-11-08T04:56:52.913Z,11.90
2022-11-08T04:59:19.248Z,14.10
2022-11-08T05:01:45.771Z,14.63
2022-11-08T05:04:12.403Z,14.63
2022-11-08T05:06:38.749Z,15.93
2022-11-08T05:09:05.099Z,15.60
2022-11-08T05:11:31.856Z,14.50
2022-11-08T05:13:58.557Z,15.43
2022-11-08T05:16:28.045Z,19.27
2022-11-08T05:18:54.736Z,18.05
2022-11-08T05:21:22.423Z,18.75
2022-11-08T05:23:50.349Z,13.13
2022-11-08T05:26:18.385Z,13.80
2022-11-08T05:28:45.092Z,12.98
2022-11-08T05:31:12.088Z,12.57
2022-11-08T05:33:38.821Z,13.23
2022-11-08T05:36:07.696Z,13.77
2022-11-08T05:38:34.613Z,12.80
2022-11-08T05:41:09.153Z,11.57
2022-11-08T05:43:35.624Z,12.17
2022-11-08T05:46:02.195Z,11.73
2022-11-08T05:48:28.549Z,12.33
2022-11-08T05:50:55.782Z,12.17
2022-11-08T05:53:22.725Z,13.03
2022-11-08T05:55:49.219Z,11.20
2022-11-08T05:58:16.389Z,12.43
2022-11-08T06:00:42.969Z,13.13
2022-11-08T06:03:09.376Z,12.80
2022-11-08T06:06:14.828Z,12.43
2022-11-08T06:08:44.994Z,12.43
2022-11-08T06:11:19.227Z,12.67
2022-11-08T06:13:45.725Z,11.20
2022-11-08T06:16:14.343Z,12.65
2022-11-08T06:18:41.659Z,12.23
2022-11-08T06:21:11.172Z,12.60
2022-11-08T06:23:37.765Z,11.75
2022-11-08T06:26:04.300Z,10.30
2022-11-08T06:28:31.551Z,11.10
2022-11-08T06:30:59.460Z,11.10
2022-11-08T06:33:26.734Z,10.13
2022-11-08T06:35:53.582Z,9.60
2022-11-08T06:38:20.544Z,9.87
2022-11-08T06:40:47.128Z,9.80
2022-11-08T06:43:19.293Z,9.77
2022-11-08T06:45:46.462Z,9.20
2022-11-08T06:48:12.883Z,9.10
2022-11-08T06:50:39.311Z,9.00
2022-11-08T06:53:08.336Z,9.10
2022-11-08T06:55:35.623Z,8.40
2022-11-08T06:58:02.992Z,9.40
2022-11-08T07:00:29.403Z,8.77
2022-11-08T07:02:58.199Z,8.38
2022-11-08T07:05:26.399Z,8.85
2022-11-08T07:07:53.106Z,9.02
2022-11-08T07:10:21.574Z,8.90
2022-11-08T07:12:48.623Z,11.35
2022-11-08T07:15:15.370Z,10.77
2022-11-08T07:17:41.971Z,10.90
2022-11-08T07:20:09.103Z,10.43
2022-11-08T07:22:35.637Z,12.70
2022-11-08T07:25:02.143Z,9.87
2022-11-08T07:27:28.636Z,9.45
2022-11-08T07:29:54.975Z,10.88
2022-11-08T07:32:21.491Z,10.07
2022-11-08T07:34:47.899Z,9.48
2022-11-08T07:37:14.268Z,10.25
2022-11-08T07:39:40.595Z,10.30
2022-11-08T07:42:07.058Z,11.35
2022-11-08T07:44:33.698Z,11.43
2022-11-08T07:47:00.300Z,12.60
2022-11-08T07:49:26.778Z,11.98
2022-11-08T07:51:53.235Z,13.48
2022-11-08T07:54:19.882Z,11.15
2022-11-08T07:56:46.420Z,8.98
2022-11-08T07:59:13.079Z,8.07
2022-11-08T08:01:39.773Z,8.70
2022-11-08T08:04:06.332Z,8.70
2022-11-08T08:06:32.772Z,8.48
2022-11-08T08:08:59.385Z,7.55
2022-11-08T08:11:30.828Z,9.02
2022-11-08T08:13:59.741Z,11.40
2022-11-08T08:16:26.161Z,8.55
2022-11-08T08:18:56.463Z,10.85
2022-11-08T08:21:23.708Z,10.43
2022-11-08T08:23:50.186Z,8.07
2022-11-08T08:26:16.756Z,8.55
2022-11-08T08:28:43.172Z,7.72
2022-11-08T08:31:09.762Z,8.52
2022-11-08T08:33:36.527Z,7.40
2022-11-08T08:36:03.854Z,7.03
2022-11-08T08:38:31.845Z,6.68
2022-11-08T08:40:58.448Z,7.03
2022-11-08T08:43:24.999Z,6.68
2022-11-08T08:45:51.495Z,7.43
2022-11-08T08:48:17.799Z,7.47
2022-11-08T08:50:44.694Z,6.88
2022-11-08T08:53:11.412Z,7.53
2022-11-08T08:55:39.692Z,6.78
2022-11-08T08:58:06.123Z,6.68
2022-11-08T09:03:20.373Z,6.78
2022-11-08T09:05:47.290Z,7.55
2022-11-08T09:08:14.533Z,7.38
2022-11-08T09:10:41.473Z,7.15
2022-11-08T09:13:07.942Z,7.13
2022-11-08T09:15:34.448Z,7.43
2022-11-08T09:18:01.176Z,6.63
2022-11-08T09:20:27.693Z,6.53
2022-11-08T09:22:54.533Z,6.43
2022-11-08T09:25:20.988Z,5.82
2022-11-08T09:27:47.356Z,6.82
2022-11-08T09:30:13.935Z,5.68
2022-11-08T09:32:59.831Z,6.05
2022-11-08T09:35:26.673Z,4.57
2022-11-08T09:37:54.467Z,5.35
2022-11-08T09:40:27.739Z,4.93
2022-11-08T09:43:20.393Z,6.10
2022-11-08T09:45:49.010Z,5.97
2022-11-08T09:48:28.119Z,5.35
2022-11-08T09:50:57.311Z,6.03
2022-11-08T09:53:39.791Z,5.63
2022-11-08T09:56:21.326Z,6.35
2022-11-08T09:58:51.088Z,8.05
2022-11-08T10:01:17.718Z,7.53
2022-11-08T10:03:48.952Z,6.88
2022-11-08T10:06:30.621Z,6.82
2022-11-08T10:09:21.387Z,6.82
2022-11-08T10:12:11.610Z,6.30
2022-11-08T10:15:11.768Z,7.13
2022-11-08T10:17:44.177Z,6.22
2022-11-08T10:20:13.779Z,6.78
2022-11-08T10:22:58.192Z,7.32
2022-11-08T10:25:33.107Z,7.13
2022-11-08T10:28:02.185Z,6.47
2022-11-08T10:30:51.164Z,6.90
2022-11-08T10:33:23.555Z,6.75
2022-11-08T10:36:12.773Z,6.28
2022-11-08T10:38:54.172Z,5.50
2022-11-08T10:41:42.808Z,5.13
2022-11-08T10:44:16.619Z,5.72
2022-11-08T10:46:50.146Z,5.28
2022-11-08T10:49:37.251Z,5.20
2022-11-08T10:52:12.851Z,4.72
2022-11-08T10:54:51.095Z,4.57
2022-11-08T10:57:29.661Z,5.15
2022-11-08T10:59:57.481Z,4.53
2022-11-08T11:02:25.884Z,4.07
2022-11-08T11:04:54.467Z,4.47
2022-11-08T11:07:41.580Z,4.60
2022-11-08T11:10:38.945Z,4.38
2022-11-08T11:13:14.569Z,4.95
2022-11-08T11:15:58.539Z,4.70
2022-11-08T11:18:49.639Z,4.30
2022-11-08T11:21:16.173Z,4.13
2022-11-08T11:23:54.609Z,4.28
2022-11-08T11:26:27.286Z,5.03
2022-11-08T11:29:05.954Z,4.50
2022-11-08T11:31:32.394Z,4.03
2022-11-08T11:33:59.816Z,5.28
2022-11-08T11:36:30.097Z,5.20
2022-11-08T11:39:06.761Z,4.80
2022-11-08T11:42:08.709Z,5.38
2022-11-08T11:45:06.360Z,5.03
2022-11-08T11:47:44.529Z,5.55
2022-11-08T11:50:27.909Z,4.65
2022-11-08T11:52:59.963Z,5.70
2022-11-08T11:56:03.608Z,4.68
2022-11-08T11:58:48.904Z,4.65
2022-11-08T12:01:36.493Z,3.85
2022-11-08T12:04:40.643Z,3.70
2022-11-08T12:07:25.041Z,3.83
2022-11-08T12:10:18.350Z,3.88
2022-11-08T12:12:58.671Z,4.80
2022-11-08T12:15:34.776Z,4.45
2022-11-08T12:18:36.974Z,4.40
2022-11-08T12:21:13.896Z,4.32
2022-11-08T12:23:49.059Z,3.92
2022-11-08T12:26:26.569Z,4.15
2022-11-08T12:29:12.082Z,3.78
2022-11-08T12:32:07.740Z,2.97
2022-11-08T12:35:01.652Z,3.72
2022-11-08T12:37:49.893Z,3.13
2022-11-08T12:40:25.338Z,3.13
2022-11-08T12:43:29.748Z,3.70
2022-11-08T12:46:06.184Z,3.38
2022-11-08T12:48:50.847Z,2.50
2022-11-08T12:51:35.631Z,2.60
2022-11-08T12:54:43.771Z,2.70
2022-11-08T12:57:14.167Z,2.20
2022-11-08T12:59:44.767Z,2.50
2022-11-08T13:02:35.765Z,2.50
2022-11-08T13:05:21.906Z,2.92
2022-11-08T13:08:00.106Z,3.10
2022-11-08T13:10:45.872Z,2.42
2022-11-08T13:13:12.384Z,2.35
2022-11-08T13:16:09.238Z,2.70
2022-11-08T13:18:43.812Z,3.40
2022-11-08T13:21:28.480Z,2.65
2022-11-08T13:24:42.827Z,2.20
2022-11-08T13:27:41.840Z,2.15
2022-11-08T13:30:11.317Z,3.00
2022-11-08T13:32:43.774Z,2.25
2022-11-08T13:35:25.540Z,2.20
2022-11-08T13:38:13.318Z,2.20
2022-11-08T13:40:45.800Z,2.88
2022-11-08T13:43:30.643Z,2.90
2022-11-08T13:46:22.795Z,2.63
2022-11-08T13:48:58.420Z,2.63
2022-11-08T13:51:31.903Z,2.90
2022-11-08T13:54:25.376Z,2.90
2022-11-08T13:56:53.932Z,3.10
2022-11-08T13:59:29.320Z,3.33
2022-11-08T14:01:58.837Z,3.28
2022-11-08T14:04:31.726Z,4.57
2022-11-08T14:07:09.605Z,6.05
2022-11-08T14:09:58.829Z,4.05
2022-11-08T14:12:37.228Z,3.55
2022-11-08T14:15:29.767Z,3.22
2022-11-08T14:18:04.602Z,3.72
2022-11-08T14:20:39.089Z,3.20
2022-11-08T14:23:21.012Z,4.05
2022-11-08T14:26:14.406Z,4.70
2022-11-08T14:28:44.917Z,4.13
2022-11-08T14:31:24.916Z,4.25
2022-11-08T14:33:51.362Z,4.25
2022-11-08T14:36:19.465Z,3.28
2022-11-08T14:38:53.087Z,3.50
2022-11-08T14:41:25.841Z,3.92
2022-11-08T14:43:54.110Z,5.07
2022-11-08T14:46:20.434Z,4.47
2022-11-08T14:48:52.173Z,8.07
2022-11-08T14:51:18.799Z,7.13
2022-11-08T14:53:50.324Z,6.90
2022-11-08T14:56:25.905Z,6.90
2022-11-08T14:58:53.990Z,6.45
2022-11-08T15:01:26.049Z,6.57
2022-11-08T15:04:02.729Z,5.03
2022-11-08T15:06:34.009Z,4.60
2022-11-08T15:09:01.580Z,4.40
2022-11-08T15:11:31.671Z,4.18
2022-11-08T15:14:05.474Z,4.13
2022-11-08T15:16:39.168Z,3.65
2022-11-08T15:19:27.220Z,3.80
2022-11-08T15:21:53.701Z,4.65
2022-11-08T15:24:38.007Z,4.40
2022-11-08T15:27:10.140Z,4.32
2022-11-08T15:29:51.754Z,3.80
2022-11-08T15:32:20.482Z,3.67
2022-11-08T15:34:47.811Z,4.80
2022-11-08T15:37:37.640Z,3.90
2022-11-08T15:40:17.484Z,3.90
2022-11-08T15:42:46.004Z,4.03
2022-11-08T15:45:12.519Z,4.63
2022-11-08T15:47:41.616Z,4.35
2022-11-08T15:50:29.162Z,5.85
2022-11-08T15:53:01.144Z,7.47
2022-11-08T15:55:53.339Z,7.63
2022-11-08T15:58:31.501Z,6.75
2022-11-08T16:00:59.981Z,6.30
2022-11-08T16:03:26.462Z,6.03
2022-11-08T16:05:52.926Z,7.32
2022-11-08T16:08:21.127Z,6.57
2022-11-08T16:11:14.059Z,5.60
2022-11-08T16:13:40.824Z,5.50
2022-11-08T16:16:12.660Z,7.35
2022-11-08T16:18:40.049Z,7.43
2022-11-08T16:21:06.710Z,7.28
2022-11-08T16:23:33.038Z,6.00
2022-11-08T16:25:59.505Z,6.80
2022-11-08T16:28:35.312Z,5.75
2022-11-08T16:31:03.901Z,6.72
2022-11-08T16:33:32.150Z,7.70
2022-11-08T16:36:02.050Z,7.15
2022-11-08T16:38:36.685Z,7.60
2022-11-08T16:41:05.066Z,5.97
2022-11-08T16:43:32.043Z,5.63
2022-11-08T16:46:06.323Z,5.28
2022-11-08T16:48:34.470Z,5.63
2022-11-08T16:51:03.939Z,6.07
2022-11-08T16:53:30.665Z,6.00
2022-11-08T16:55:57.332Z,5.88
2022-11-08T16:58:24.767Z,6.60
2022-11-08T17:00:51.326Z,6.40
2022-11-08T17:03:23.845Z,6.85
2022-11-08T17:05:51.127Z,7.95
2022-11-08T17:08:17.955Z,10.65
2022-11-08T17:10:44.916Z,10.13
2022-11-08T17:13:16.297Z,13.82
2022-11-08T17:15:42.745Z,16.90
2022-11-08T17:18:12.822Z,17.38
2022-11-08T17:20:39.443Z,25.08
2022-11-08T17:23:06.423Z,31.23
2022-11-08T17:25:36.635Z,49.28
2022-11-08T17:28:03.704Z,40.30
2022-11-08T17:30:30.326Z,16.45
2022-11-08T17:32:56.654Z,12.77
2022-11-08T17:35:23.028Z,9.45
2022-11-08T17:37:49.588Z,9.13
2022-11-08T17:40:16.093Z,7.40
2022-11-08T17:42:42.670Z,6.93
2022-11-08T17:45:10.534Z,6.18
2022-11-08T17:47:37.496Z,6.95
2022-11-08T17:50:05.373Z,7.63
2022-11-08T17:52:33.105Z,7.18
2022-11-08T17:54:59.493Z,6.88
2022-11-08T17:57:25.944Z,7.50
2022-11-08T17:59:52.401Z,6.57
2022-11-08T18:02:19.229Z,6.57
2022-11-08T18:04:45.852Z,6.30
2022-11-08T18:07:12.351Z,7.00
2022-11-08T18:09:38.838Z,10.85
2022-11-08T18:12:05.673Z,8.07
2022-11-08T18:14:32.326Z,7.00
2022-11-08T18:16:58.778Z,7.05
2022-11-08T18:19:25.383Z,8.10
2022-11-08T18:21:51.762Z,6.93
2022-11-08T18:24:18.316Z,7.97
2022-11-08T18:26:44.830Z,6.60
2022-11-08T18:29:11.430Z,7.25
2022-11-08T18:31:37.823Z,6.90
2022-11-08T18:34:04.550Z,7.55
2022-11-08T18:36:31.581Z,7.50
2022-11-08T18:39:01.432Z,8.43
2022-11-08T18:41:31.153Z,7.25
2022-11-08T18:43:59.275Z,7.70
2022-11-08T18:46:28.490Z,8.43
2022-11-08T18:48:55.119Z,9.05
2022-11-08T18:51:22.604Z,8.60
2022-11-08T18:53:48.993Z,9.25
2022-11-08T18:56:15.730Z,10.02
2022-11-08T18:58:43.460Z,8.55
2022-11-08T19:01:10.141Z,9.02
2022-11-08T19:03:36.969Z,9.93
2022-11-08T19:06:03.605Z,10.70
2022-11-08T19:08:32.228Z,9.93
2022-11-08T19:11:00.053Z,10.48
2022-11-08T19:13:28.472Z,10.18
2022-11-08T19:16:00.332Z,8.88
2022-11-08T19:18:27.940Z,9.88
2022-11-08T19:20:56.046Z,10.32
2022-11-08T19:23:22.769Z,9.88
2022-11-08T19:26:06.165Z,9.77
2022-11-08T19:28:36.291Z,11.60
2022-11-08T19:31:03.309Z,11.20
2022-11-08T19:33:31.010Z,10.88
2022-11-08T19:36:03.340Z,10.90
2022-11-08T19:38:32.199Z,10.65
2022-11-08T19:41:01.366Z,10.68
2022-11-08T19:43:27.886Z,10.73
2022-11-08T19:45:54.282Z,16.75
2022-11-08T19:48:21.558Z,19.45
2022-11-08T19:50:48.147Z,19.10
2022-11-08T19:53:14.789Z,11.68
2022-11-08T19:55:41.328Z,10.45
2022-11-08T19:58:07.723Z,9.50
2022-11-08T20:00:36.565Z,10.13
2022-11-08T20:03:03.049Z,9.32
2022-11-08T20:05:29.382Z,9.07
2022-11-08T20:07:56.022Z,9.13
2022-11-08T20:10:22.407Z,8.55
2022-11-08T20:12:49.080Z,8.32
2022-11-08T20:15:15.513Z,8.40
2022-11-08T20:17:42.069Z,9.68
2022-11-08T20:20:09.013Z,8.88
2022-11-08T20:22:35.433Z,9.80
2022-11-08T20:25:02.122Z,9.60
2022-11-08T20:27:28.661Z,9.75
2022-11-08T20:29:55.190Z,11.38
2022-11-08T20:32:21.586Z,11.23
2022-11-08T20:34:47.995Z,14.27
2022-11-08T20:37:14.409Z,13.90
2022-11-08T20:39:40.904Z,13.73
2022-11-08T20:42:08.709Z,14.40
2022-11-08T20:44:35.136Z,15.43
2022-11-08T20:47:06.217Z,35.00
2022-11-08T20:49:33.295Z,29.70
2022-11-08T20:51:59.935Z,25.33
2022-11-08T20:54:26.523Z,23.55
2022-11-08T20:56:52.884Z,22.00
2022-11-08T20:59:19.298Z,20.50
2022-11-08T21:01:45.769Z,21.30
2022-11-08T21:04:12.446Z,18.90
2022-11-08T21:06:39.137Z,18.23
2022-11-08T21:09:31.364Z,17.33
2022-11-08T21:11:53.823Z,16.02
2022-11-08T21:14:20.509Z,16.90
2022-11-08T21:17:15.125Z,15.63
2022-11-08T21:19:34.249Z,15.40
2022-11-08T21:22:00.638Z,14.43
2022-11-08T21:24:27.157Z,14.52
2022-11-08T21:26:53.612Z,12.82
2022-11-08T21:29:20.006Z,12.48
2022-11-08T21:31:46.314Z,13.70
2022-11-08T21:34:13.112Z,13.98
2022-11-08T21:36:39.782Z,14.18
2022-11-08T21:39:06.106Z,13.05
2022-11-08T21:41:32.535Z,12.82
2022-11-08T21:43:59.003Z,11.80
2022-11-08T21:46:26.545Z,11.50
2022-11-08T21:48:55.056Z,11.40
2022-11-08T21:51:22.290Z,12.40
2022-11-08T21:53:56.542Z,11.48
2022-11-08T21:56:24.542Z,12.77
2022-11-08T21:58:51.296Z,12.55
2022-11-08T22:01:17.872Z,11.00
2022-11-08T22:03:44.884Z,13.25
2022-11-08T22:06:11.487Z,11.73
2022-11-08T22:08:38.353Z,12.30
2022-11-08T22:11:05.170Z,11.60
2022-11-08T22:13:31.583Z,10.45
2022-11-08T22:15:58.006Z,11.65
2022-11-08T22:18:36.970Z,11.15
2022-11-08T22:21:11.016Z,10.00
2022-11-08T22:23:37.499Z,10.93
2022-11-08T22:26:04.235Z,10.52
2022-11-08T22:28:30.694Z,12.10
2022-11-08T22:30:57.402Z,10.38
2022-11-08T22:33:23.995Z,12.07
2022-11-08T22:35:50.569Z,10.73
2022-11-08T22:38:17.727Z,10.13
2022-11-08T22:40:45.878Z,10.23
2022-11-08T22:43:12.855Z,11.25
2022-11-08T22:45:40.465Z,10.52
2022-11-08T22:48:07.534Z,10.20
2022-11-08T22:50:34.080Z,9.55
2022-11-08T22:53:00.919Z,10.73
2022-11-08T22:55:27.450Z,10.55
2022-11-08T22:57:54.086Z,10.98
2022-11-08T23:00:20.843Z,11.18
2022-11-08T23:02:47.777Z,11.23
2022-11-08T23:05:14.707Z,12.75
2022-11-08T23:07:41.332Z,12.35
2022-11-08T23:10:08.154Z,12.52
2022-11-08T23:12:34.560Z,12.50
2022-11-08T23:15:00.916Z,12.63
2022-11-08T23:17:27.326Z,13.00
2022-11-08T23:19:53.799Z,13.02
2022-11-08T23:22:21.586Z,11.30
2022-11-08T23:24:47.935Z,11.82
2022-11-08T23:27:16.573Z,12.57
2022-11-08T23:29:43.113Z,11.50
2022-11-08T23:32:09.780Z,11.20
2022-11-08T23:34:37.423Z,10.27
2022-11-08T23:37:03.786Z,11.18
2022-11-08T23:39:30.200Z,10.90
2022-11-08T23:41:56.837Z,10.18
2022-11-08T23:44:23.124Z,11.10
2022-11-08T23:46:50.931Z,11.20
2022-11-08T23:49:17.415Z,10.10
2022-11-08T23:51:43.875Z,10.88
2022-11-08T23:54:10.446Z,10.07
2022-11-08T23:56:36.972Z,10.80
2022-11-08T23:59:03.714Z,10.88
